La Crosse Municipal Airport La Crosse US
ICAO: KLSE
IATA: LSE
Category: Medium
Scheduled Services: Yes

Elevation: 655 ft
TransAlt. 18000 ft.

Airport Communications:
ATIS:124.95
MINNEAPOLIS CNTR:128.6
CTAF:118.45
GND:121.8
GREEN BAY RDO:122.2
TWR:118.45
UNICOM:122.95

KLSE Zoom In..

If you have problems with the map follow the link
https://www.worldairports.se/pages/airport.php?
ICAO=KLSE

Runways:

(A) RW 03 length 5199 ft width 150 ft
---- / hdg 34

(B) RW 13 length 6050 ft width 150 ft
---- / hdg 132

(C) RW 18 length 8742 ft width 150 ft
ILS 111.10 / hdg 177

(D) RW 21 length 5199 ft width 150 ft
---- / hdg 214

(E) RW 31 length 6050 ft width 150 ft
---- / hdg 312

(F) RW 36 length 8742 ft width 150 ft
---- / hdg 357

Location; KLSE
Day. 23 / Time. 06.53 Zulu
* Altimeter: 30.22
* Temperature: 04° c. 39.2°f.
* Wind from: 330° Speed 08 kn.
Dewpoint: -03° c.
Visibility: 10 Statute Miles.
Clouds: Clear (automated report).

KLSE 230653Z AUTO 33008KT 10SM CLR 04/M03 A3022 RMK AO2 SLP236 T00441028


Wind From 330°
Speed 08 kn.

 
 
jpsmedia.com for Web Design worldairports.se 2018   terms of use